Time;durP1;ratioP1;P1;durP2;ratioP2;P2;SDS_P1;SDS_P2;PMS_P1;PMS_P2;Temp;Humidity;BMP_temperature;BMP_pressure;BME280_temperature;BME280_humidity;BME280_pressure;Samples;Min_cycle;Max_cycle;Signal;HPM_P1;HPM_P2
2022/04/12 00:00:18;;;;;;;4.63;2.93;;;6.90;1.00;;;;;;5099242;28;20986;-60
2022/04/12 00:02:44;;;;;;;5.67;3.00;;;6.90;1.00;;;;;;5104895;28;20260;-59
2022/04/12 00:05:11;;;;;;;6.70;4.00;;;6.90;1.00;;;;;;5101503;28;20459;-61
2022/04/12 00:07:41;;;;;;;3.33;3.10;;;6.90;1.00;;;;;;5106580;28;20995;-61
2022/04/12 00:10:07;;;;;;;5.10;3.67;;;6.80;1.00;;;;;;5097718;28;20444;-59
2022/04/12 00:12:33;;;;;;;6.60;4.30;;;6.80;1.00;;;;;;5100948;28;20466;-59
2022/04/12 00:14:59;;;;;;;4.70;3.10;;;6.80;1.00;;;;;;5104519;28;20543;-60
2022/04/12 00:20:09;;;;;;;7.67;3.53;;;6.80;1.00;;;;;;5108834;28;20200;-62
2022/04/12 00:22:35;;;;;;;4.70;3.60;;;6.80;1.00;;;;;;5097348;28;21099;-60
2022/04/12 00:25:02;;;;;;;6.40;3.80;;;6.80;1.00;;;;;;5094184;28;20448;-57
2022/04/12 00:27:28;;;;;;;3.80;3.40;;;6.70;1.00;;;;;;5098546;28;20852;-61
2022/04/12 00:29:54;;;;;;;4.30;3.07;;;6.70;1.00;;;;;;5103268;28;20443;-59
2022/04/12 00:32:20;;;;;;;4.30;3.07;;;6.70;1.00;;;;;;5106642;28;20182;-60
2022/04/12 00:34:45;;;;;;;4.57;2.73;;;6.70;1.00;;;;;;5104690;28;20800;-60
2022/04/12 00:37:11;;;;;;;3.70;3.37;;;6.70;1.00;;;;;;5101919;28;20179;-60
2022/04/12 00:39:37;;;;;;;3.10;2.70;;;6.60;1.00;;;;;;5109045;28;20190;-60
2022/04/12 00:42:03;;;;;;;5.50;3.13;;;6.50;1.00;;;;;;5100404;28;20177;-60
2022/04/12 00:44:29;;;;;;;3.93;3.30;;;6.50;1.00;;;;;;5098346;28;20554;-60
2022/04/12 00:46:55;;;;;;;4.00;3.37;;;6.50;1.00;;;;;;5109760;28;20547;-60
2022/04/12 00:49:23;;;;;;;4.73;3.50;;;6.50;1.00;;;;;;5099509;28;20216;-60
2022/04/12 00:51:49;;;;;;;3.73;2.83;;;6.40;1.00;;;;;;5096774;28;20193;-60
2022/04/12 00:54:17;;;;;;;4.83;3.73;;;6.40;1.00;;;;;;5107856;28;20453;-60
2022/04/12 00:56:42;;;;;;;6.00;3.17;;;6.30;1.00;;;;;;5096450;28;20443;-60
2022/04/12 00:59:08;;;;;;;4.67;3.63;;;6.40;1.00;;;;;;5094200;28;20436;-60
2022/04/12 01:01:34;;;;;;;4.20;3.33;;;6.30;1.00;;;;;;5094773;28;20211;-60
2022/04/12 01:04:00;;;;;;;3.30;3.00;;;;;;;;;;5094992;28;20461;-61
2022/04/12 01:06:25;;;;;;;5.00;3.90;;;6.30;1.00;;;;;;5095761;28;20206;-59
2022/04/12 01:08:52;;;;;;;2.90;2.70;;;6.30;1.00;;;;;;5105268;28;20912;-59
2022/04/12 01:11:17;;;;;;;5.33;3.60;;;6.20;1.00;;;;;;5096746;28;20191;-59
2022/04/12 01:13:42;;;;;;;4.50;3.20;;;6.20;1.00;;;;;;5098700;28;20471;-60
2022/04/12 01:16:08;;;;;;;4.80;3.43;;;6.10;1.00;;;;;;5107249;28;20575;-61
2022/04/12 01:18:34;;;;;;;5.10;3.33;;;6.20;1.00;;;;;;5105781;28;20191;-60
2022/04/12 01:21:01;;;;;;;4.27;3.67;;;6.30;1.00;;;;;;5107630;28;20186;-59
2022/04/12 01:23:31;;;;;;;3.20;2.87;;;6.10;1.00;;;;;;5102543;28;20788;-59
2022/04/12 01:25:57;;;;;;;4.90;3.30;;;6.10;1.00;;;;;;5100409;28;20462;-59
2022/04/12 01:28:23;;;;;;;4.67;3.33;;;6.10;1.00;;;;;;5104446;28;20516;-60
2022/04/12 01:30:51;;;;;;;3.97;3.53;;;6.00;1.00;;;;;;5094767;28;20496;-59
2022/04/12 01:33:16;;;;;;;6.20;4.00;;;6.00;1.00;;;;;;5098919;28;20207;-59
2022/04/12 01:35:42;;;;;;;5.37;3.67;;;6.00;1.00;;;;;;5105672;28;20440;-59
2022/04/12 01:38:08;;;;;;;4.47;3.93;;;;;;;;;;5101896;28;20189;-59
2022/04/12 01:40:33;;;;;;;3.67;3.20;;;5.90;1.00;;;;;;5104866;28;20198;-59
2022/04/12 01:42:59;;;;;;;3.90;3.27;;;5.80;1.00;;;;;;5101139;28;20455;-60
2022/04/12 01:45:25;;;;;;;6.30;3.33;;;5.90;1.00;;;;;;5099020;28;20202;-61
2022/04/12 01:47:50;;;;;;;3.60;3.20;;;5.90;1.00;;;;;;5104059;28;20673;-60
2022/04/12 01:50:16;;;;;;;5.43;3.50;;;5.90;1.00;;;;;;5099644;28;20205;-59
2022/04/12 01:52:41;;;;;;;5.60;3.30;;;5.90;1.00;;;;;;5105426;28;20231;-59
2022/04/12 01:55:08;;;;;;;4.83;3.80;;;5.80;1.00;;;;;;5106035;28;20183;-58
2022/04/12 01:57:33;;;;;;;4.30;3.53;;;5.80;1.00;;;;;;5103422;28;20193;-60
2022/04/12 01:59:59;;;;;;;3.97;3.57;;;5.70;1.00;;;;;;5103218;28;20968;-59
2022/04/12 02:02:25;;;;;;;5.00;3.47;;;5.70;1.00;;;;;;5099168;28;20233;-61
2022/04/12 02:04:50;;;;;;;6.40;3.80;;;5.70;1.00;;;;;;5101945;28;20294;-60
2022/04/12 02:07:16;;;;;;;6.37;3.90;;;5.70;1.00;;;;;;5100141;28;20193;-59
2022/04/12 02:09:41;;;;;;;5.03;3.60;;;5.60;1.00;;;;;;5099935;28;20185;-59
2022/04/12 02:12:07;;;;;;;8.17;4.07;;;5.70;1.00;;;;;;5099980;28;20201;-58
2022/04/12 02:14:33;;;;;;;5.60;3.20;;;5.60;1.00;;;;;;5105655;28;20190;-59
2022/04/12 02:16:58;;;;;;;5.37;3.63;;;5.60;1.00;;;;;;5102103;28;20444;-57
2022/04/12 02:19:24;;;;;;;4.43;3.40;;;5.70;1.00;;;;;;5105915;28;20192;-59
2022/04/12 02:21:50;;;;;;;6.63;4.27;;;5.70;1.00;;;;;;5106478;28;20190;-59
2022/04/12 02:24:15;;;;;;;4.83;3.60;;;5.70;1.00;;;;;;5104220;28;20182;-59
2022/04/12 02:26:41;;;;;;;6.00;3.60;;;5.70;1.00;;;;;;5104996;28;20198;-60
2022/04/12 02:29:12;;;;;;;4.20;3.80;;;5.70;1.00;;;;;;5102050;28;20260;-59
2022/04/12 02:31:37;;;;;;;5.30;4.07;;;5.60;1.00;;;;;;5100508;28;20198;-64
2022/04/12 02:34:03;;;;;;;4.83;4.30;;;5.60;1.00;;;;;;5102334;28;21398;-58
2022/04/12 02:36:28;;;;;;;4.47;4.00;;;5.70;1.00;;;;;;5108167;28;20197;-58
2022/04/12 02:38:54;;;;;;;4.83;3.93;;;5.70;1.00;;;;;;5104707;28;20214;-58
2022/04/12 02:41:19;;;;;;;4.30;3.53;;;5.70;1.00;;;;;;5104367;28;20627;-60
2022/04/12 02:43:45;;;;;;;4.23;3.60;;;5.60;1.00;;;;;;5105847;28;20194;-59
2022/04/12 02:46:11;;;;;;;4.67;3.87;;;5.50;1.00;;;;;;5103051;28;20186;-60
2022/04/12 02:48:36;;;;;;;4.97;3.77;;;5.50;1.00;;;;;;5096594;28;20218;-59
2022/04/12 02:51:05;;;;;;;5.20;4.10;;;5.50;1.00;;;;;;5102157;28;20207;-59
2022/04/12 02:53:30;;;;;;;5.13;4.07;;;5.50;1.00;;;;;;5102845;28;20182;-59
2022/04/12 02:55:56;;;;;;;5.47;3.30;;;5.50;1.00;;;;;;5097410;28;20494;-59
2022/04/12 02:58:22;;;;;;;6.43;3.83;;;5.50;1.00;;;;;;5100038;28;20186;-58
2022/04/12 03:00:47;;;;;;;5.77;3.73;;;5.50;1.00;;;;;;5099075;28;20471;-58
2022/04/12 03:03:13;;;;;;;6.10;3.60;;;5.30;1.00;;;;;;5098811;28;20214;-60
2022/04/12 03:05:39;;;;;;;5.40;4.03;;;5.30;1.00;;;;;;5107596;28;20212;-60
2022/04/12 03:08:05;;;;;;;5.00;4.10;;;5.30;1.00;;;;;;5103241;28;20218;-60
2022/04/12 03:10:30;;;;;;;5.03;4.53;;;5.30;1.00;;;;;;5100289;28;20605;-60
2022/04/12 03:12:56;;;;;;;4.63;4.03;;;5.30;1.00;;;;;;5100859;28;20441;-58
2022/04/12 03:15:22;;;;;;;5.77;3.33;;;;;;;;;;5101011;28;20213;-59
2022/04/12 03:17:48;;;;;;;5.90;3.50;;;5.20;1.00;;;;;;5104144;28;20336;-59
2022/04/12 03:20:14;;;;;;;5.07;3.70;;;5.20;1.00;;;;;;5100576;28;20452;-62
2022/04/12 03:22:41;;;;;;;5.73;3.93;;;5.20;1.00;;;;;;5103120;28;20451;-59
2022/04/12 03:25:10;;;;;;;4.43;3.63;;;5.20;1.00;;;;;;5101065;28;20182;-61
2022/04/12 03:27:36;;;;;;;6.00;4.30;;;5.20;1.00;;;;;;5102981;28;20521;-59
2022/04/12 03:30:02;;;;;;;4.13;3.50;;;5.20;1.00;;;;;;5101150;28;20451;-60
2022/04/12 03:32:28;;;;;;;6.13;4.17;;;5.20;1.00;;;;;;5102680;28;20174;-59
2022/04/12 03:34:54;;;;;;;5.00;4.03;;;;;;;;;;5103588;28;20490;-60
2022/04/12 03:37:19;;;;;;;5.80;4.10;;;5.20;1.00;;;;;;5101385;28;20186;-59
2022/04/12 03:39:45;;;;;;;4.60;4.10;;;5.20;1.00;;;;;;5098386;28;20456;-58
2022/04/12 03:42:14;;;;;;;4.80;4.40;;;5.10;1.00;;;;;;5104624;28;20185;-59
2022/04/12 03:44:40;;;;;;;6.23;4.50;;;5.00;1.00;;;;;;5104387;28;20242;-58
2022/04/12 03:47:07;;;;;;;5.37;3.83;;;5.00;1.00;;;;;;5098422;28;20432;-59
2022/04/12 03:49:32;;;;;;;6.90;4.40;;;5.00;1.00;;;;;;5099350;28;20472;-60
2022/04/12 03:51:58;;;;;;;8.20;4.53;;;5.10;1.00;;;;;;5100771;28;20510;-58
2022/04/12 03:54:24;;;;;;;4.47;3.80;;;5.10;1.00;;;;;;5099616;27;20444;-60
2022/04/12 03:56:50;;;;;;;4.83;4.33;;;5.10;1.00;;;;;;5110951;28;20171;-59
2022/04/12 03:59:15;;;;;;;5.80;4.10;;;5.10;1.00;;;;;;5098688;28;20816;-59
2022/04/12 04:01:41;;;;;;;10.30;4.90;;;5.10;1.00;;;;;;5100834;28;20663;-58
2022/04/12 04:04:07;;;;;;;6.97;4.17;;;5.20;1.00;;;;;;5104232;28;20309;-60
2022/04/12 04:06:32;;;;;;;4.97;3.93;;;5.20;1.00;;;;;;5107050;27;20181;-60
2022/04/12 04:08:58;;;;;;;5.87;4.30;;;5.20;1.00;;;;;;5103937;28;20463;-60
2022/04/12 04:11:23;;;;;;;6.07;4.13;;;5.10;1.00;;;;;;5110096;28;20559;-58
2022/04/12 04:13:49;;;;;;;4.60;3.97;;;5.10;1.00;;;;;;5102120;28;20753;-60
2022/04/12 04:16:15;;;;;;;5.43;3.80;;;5.10;1.00;;;;;;5099819;28;20325;-59
2022/04/12 04:18:40;;;;;;;4.97;3.70;;;5.20;1.00;;;;;;5103149;28;20240;-61
2022/04/12 04:21:06;;;;;;;5.97;3.83;;;5.20;1.00;;;;;;5109799;28;20643;-63
2022/04/12 04:23:31;;;;;;;4.67;4.03;;;5.20;1.00;;;;;;5110076;28;20197;-64
2022/04/12 04:25:57;;;;;;;6.73;4.20;;;5.00;1.00;;;;;;5101729;28;20217;-63
2022/04/12 04:28:22;;;;;;;5.73;5.03;;;4.90;1.00;;;;;;5107787;28;20213;-63
2022/04/12 04:30:51;;;;;;;10.83;4.30;;;5.10;1.00;;;;;;5105093;28;20485;-64
2022/04/12 04:33:18;;;;;;;8.27;4.50;;;5.00;1.00;;;;;;5109806;28;20592;-62
2022/04/12 04:35:44;;;;;;;10.23;4.87;;;5.10;1.00;;;;;;5101966;28;20530;-61
2022/04/12 04:38:10;;;;;;;6.57;4.73;;;5.10;1.00;;;;;;5102072;28;20440;-62
2022/04/12 04:40:36;;;;;;;8.03;4.67;;;5.20;1.00;;;;;;5104379;28;20443;-61
2022/04/12 04:43:02;;;;;;;10.43;4.53;;;5.30;1.00;;;;;;5097124;28;20214;-61
2022/04/12 04:45:28;;;;;;;4.70;3.83;;;5.30;1.00;;;;;;5104749;28;20272;-60
2022/04/12 04:47:59;;;;;;;6.03;4.50;;;5.40;1.00;;;;;;5099919;28;21082;-61
2022/04/12 04:50:30;;;;;;;8.43;4.70;;;5.50;1.00;;;;;;5110059;28;20471;-61
2022/04/12 04:52:56;;;;;;;7.10;4.27;;;5.60;1.00;;;;;;5098939;28;20441;-60
2022/04/12 04:55:22;;;;;;;6.20;4.17;;;5.60;1.00;;;;;;5095506;28;20436;-59
2022/04/12 04:57:48;;;;;;;5.53;4.33;;;5.70;1.00;;;;;;5098402;28;20800;-60
2022/04/12 05:00:16;;;;;;;5.87;4.23;;;5.70;1.00;;;;;;5104981;28;20499;-62
2022/04/12 05:02:50;;;;;;;9.50;4.40;;;5.80;1.00;;;;;;5100830;28;20199;-60
2022/04/12 05:05:16;;;;;;;6.80;3.93;;;5.80;1.00;;;;;;5110275;28;20455;-61
2022/04/12 05:07:44;;;;;;;12.37;4.60;;;5.80;1.00;;;;;;5099624;28;20500;-61
2022/04/12 05:10:17;;;;;;;7.00;5.17;;;5.80;1.00;;;;;;5103888;28;20444;-60
2022/04/12 05:12:43;;;;;;;8.97;4.60;;;;;;;;;;5098236;28;20476;-61
2022/04/12 05:15:09;;;;;;;9.97;4.80;;;5.90;1.00;;;;;;5094386;28;20490;-61
2022/04/12 05:17:34;;;;;;;5.90;4.63;;;6.00;1.00;;;;;;5108088;28;20471;-63
2022/04/12 05:20:00;;;;;;;10.33;4.53;;;6.10;1.00;;;;;;5103438;28;20510;-62
2022/04/12 05:22:26;;;;;;;6.83;4.60;;;6.20;1.00;;;;;;5104055;28;20592;-61
2022/04/12 05:24:52;;;;;;;9.50;5.30;;;6.20;1.00;;;;;;5102526;28;20191;-61
2022/04/12 05:27:18;;;;;;;11.70;4.70;;;6.40;1.00;;;;;;5105156;28;20774;-62
2022/04/12 05:29:44;;;;;;;7.47;5.40;;;6.40;1.00;;;;;;5099359;28;20450;-62
2022/04/12 05:32:12;;;;;;;12.33;5.27;;;6.40;1.00;;;;;;5093969;28;20455;-64
2022/04/12 05:34:42;;;;;;;8.10;5.83;;;6.60;1.00;;;;;;5110046;28;20315;-63
2022/04/12 05:37:08;;;;;;;6.23;4.70;;;;;;;;;;5099744;28;20440;-63
2022/04/12 05:39:34;;;;;;;9.03;5.47;;;6.80;1.00;;;;;;5102248;28;20463;-63
2022/04/12 05:42:00;;;;;;;5.13;4.63;;;7.00;1.00;;;;;;5102905;28;20444;-63
2022/04/12 05:44:27;;;;;;;5.70;4.70;;;7.10;1.00;;;;;;5103745;28;20205;-63
2022/04/12 05:46:53;;;;;;;8.50;5.33;;;7.10;1.00;;;;;;5104200;28;20450;-61
2022/04/12 05:49:18;;;;;;;7.60;5.00;;;7.20;1.00;;;;;;5104690;28;20460;-61
2022/04/12 05:51:44;;;;;;;7.57;4.77;;;7.20;1.00;;;;;;5090503;28;20600;-62
2022/04/12 05:54:09;;;;;;;8.03;5.73;;;7.50;1.00;;;;;;5113929;28;20193;-62
2022/04/12 05:56:35;;;;;;;8.30;4.90;;;7.50;1.00;;;;;;5096940;28;20196;-63
2022/04/12 05:59:00;;;;;;;8.10;4.97;;;7.70;1.00;;;;;;5100260;28;20206;-62
2022/04/12 06:01:26;;;;;;;6.07;5.40;;;7.70;1.00;;;;;;5105949;28;20662;-62
2022/04/12 06:03:51;;;;;;;6.70;5.53;;;8.00;1.00;;;;;;5102732;28;20218;-62
2022/04/12 06:06:17;;;;;;;6.33;5.20;;;8.10;1.00;;;;;;5112835;28;20194;-63
2022/04/12 06:08:42;;;;;;;7.07;5.13;;;8.20;1.00;;;;;;5100386;28;20345;-63
2022/04/12 06:11:08;;;;;;;9.37;5.33;;;8.40;1.00;;;;;;5104847;28;20221;-62
2022/04/12 06:13:34;;;;;;;6.90;4.90;;;8.50;1.00;;;;;;5112358;28;20279;-62
2022/04/12 06:15:59;;;;;;;5.67;4.43;;;8.70;1.00;;;;;;5111082;28;20186;-62
2022/04/12 06:18:25;;;;;;;9.00;5.40;;;;;;;;;;5113075;28;20651;-62
2022/04/12 06:20:51;;;;;;;6.03;4.80;;;8.90;1.00;;;;;;5113510;28;20186;-61
2022/04/12 06:23:17;;;;;;;12.47;6.07;;;9.20;1.00;;;;;;5106888;28;20472;-64
2022/04/12 06:25:43;;;;;;;7.53;4.57;;;9.30;1.00;;;;;;5092967;28;20179;-62
2022/04/12 06:28:09;;;;;;;7.93;5.00;;;9.40;1.00;;;;;;5093696;28;20473;-63
2022/04/12 06:30:34;;;;;;;7.00;4.83;;;9.60;1.00;;;;;;5096142;28;20247;-62
2022/04/12 06:33:00;;;;;;;5.37;4.87;;;9.70;1.00;;;;;;5106748;28;20491;-64
2022/04/12 06:35:26;;;;;;;5.20;4.30;;;9.80;1.00;;;;;;5096278;28;20182;-61
2022/04/12 06:37:53;;;;;;;6.73;4.90;;;10.10;1.00;;;;;;5098982;28;20231;-62
2022/04/12 06:40:20;;;;;;;8.57;3.90;;;10.30;1.00;;;;;;5112147;28;20174;-63
2022/04/12 06:42:47;;;;;;;13.23;4.90;;;10.30;1.00;;;;;;5113195;28;20778;-63
2022/04/12 06:45:13;;;;;;;6.47;4.27;;;;;;;;;;5112375;28;20450;-63
2022/04/12 06:47:39;;;;;;;6.33;4.37;;;10.60;1.00;;;;;;5099294;28;20451;-65
2022/04/12 06:50:06;;;;;;;4.33;3.93;;;10.90;1.00;;;;;;5103011;28;20440;-64
2022/04/12 06:52:32;;;;;;;9.20;3.80;;;11.10;1.00;;;;;;5103034;28;20863;-64
2022/04/12 06:54:58;;;;;;;6.83;4.00;;;11.10;1.00;;;;;;5101934;28;20532;-64
2022/04/12 06:57:24;;;;;;;4.80;4.20;;;11.20;1.00;;;;;;5105284;28;20449;-64
2022/04/12 06:59:51;;;;;;;4.80;3.60;;;11.20;1.00;;;;;;5104755;28;20465;-63
2022/04/12 07:02:17;;;;;;;8.03;4.43;;;11.40;1.00;;;;;;5103195;28;20178;-64
2022/04/12 07:04:42;;;;;;;7.10;3.60;;;11.60;1.00;;;;;;5096755;28;20911;-63
2022/04/12 07:07:08;;;;;;;4.67;3.13;;;11.60;1.00;;;;;;5108068;28;20190;-63
2022/04/12 07:09:34;;;;;;;6.60;4.10;;;11.50;1.00;;;;;;5109550;28;20205;-63
2022/04/12 07:12:01;;;;;;;9.30;4.10;;;11.50;1.00;;;;;;5092502;28;20551;-64
2022/04/12 07:14:29;;;;;;;4.50;3.87;;;11.70;1.00;;;;;;5095990;28;20182;-64
2022/04/12 07:16:55;;;;;;;6.37;4.13;;;11.90;1.00;;;;;;5096362;27;20519;-64
2022/04/12 07:19:20;;;;;;;9.03;4.30;;;11.80;1.00;;;;;;5098990;28;20436;-64
2022/04/12 07:21:47;;;;;;;7.10;4.10;;;12.10;1.00;;;;;;5102976;28;20755;-62
2022/04/12 07:24:12;;;;;;;6.10;3.87;;;12.20;1.00;;;;;;5097630;28;20554;-61
2022/04/12 07:26:38;;;;;;;3.73;3.40;;;12.30;1.00;;;;;;5091963;28;20443;-63
2022/04/12 07:29:04;;;;;;;5.47;3.70;;;12.40;1.00;;;;;;5096576;28;20245;-61
2022/04/12 07:31:30;;;;;;;10.70;3.73;;;12.60;1.00;;;;;;5097698;28;20764;-62
2022/04/12 07:33:56;;;;;;;7.00;4.70;;;12.60;1.00;;;;;;5092968;28;20274;-62
2022/04/12 07:36:22;;;;;;;5.23;4.03;;;12.60;1.00;;;;;;5102955;28;20178;-63
2022/04/12 07:38:50;;;;;;;6.40;3.80;;;12.70;1.00;;;;;;5096724;28;20269;-63
2022/04/12 07:41:17;;;;;;;4.63;3.50;;;12.80;1.00;;;;;;5112374;28;20545;-63
2022/04/12 07:43:45;;;;;;;5.10;3.87;;;13.00;1.00;;;;;;5102770;28;20456;-63
2022/04/12 07:46:14;;;;;;;7.50;3.87;;;13.20;1.00;;;;;;5098375;28;20448;-63
2022/04/12 07:48:40;;;;;;;7.97;3.60;;;13.20;1.00;;;;;;5093413;28;20468;-63
2022/04/12 07:51:06;;;;;;;6.70;3.93;;;;;;;;;;5096089;28;20441;-63
2022/04/12 07:53:31;;;;;;;5.37;4.10;;;13.40;1.00;;;;;;5101957;28;21168;-63
2022/04/12 07:55:57;;;;;;;6.63;3.93;;;13.40;1.00;;;;;;5093212;28;20432;-65
2022/04/12 07:58:23;;;;;;;8.77;4.33;;;13.80;1.00;;;;;;5091572;28;20272;-65
2022/04/12 08:00:48;;;;;;;7.97;4.00;;;14.00;1.00;;;;;;5108909;28;22222;-63
2022/04/12 08:03:14;;;;;;;4.03;3.63;;;14.10;1.00;;;;;;5111169;28;20225;-63
2022/04/12 08:05:39;;;;;;;5.30;3.63;;;14.10;1.00;;;;;;5105222;28;20224;-62
2022/04/12 08:08:06;;;;;;;5.00;3.70;;;14.20;1.00;;;;;;5096040;28;20206;-63
2022/04/12 08:10:31;;;;;;;4.43;3.43;;;14.20;1.00;;;;;;5104336;28;20631;-63
2022/04/12 08:12:58;;;;;;;6.80;4.07;;;14.30;1.00;;;;;;5095441;28;20468;-64
2022/04/12 08:15:24;;;;;;;7.83;4.50;;;14.30;1.00;;;;;;5106839;28;20992;-64
2022/04/12 08:17:50;;;;;;;7.57;3.57;;;14.30;1.00;;;;;;5099834;28;20190;-62
2022/04/12 08:20:16;;;;;;;4.87;3.90;;;14.30;1.00;;;;;;5099860;28;20242;-63
2022/04/12 08:22:42;;;;;;;6.57;4.10;;;;;;;;;;5097211;28;20194;-62
2022/04/12 08:25:09;;;;;;;4.23;3.83;;;14.60;1.00;;;;;;5092661;28;20187;-65
2022/04/12 08:27:35;;;;;;;3.93;3.53;;;14.70;1.00;;;;;;5104079;28;20432;-62
2022/04/12 08:30:02;;;;;;;6.47;3.90;;;14.80;1.00;;;;;;5106823;28;20950;-62
2022/04/12 08:32:29;;;;;;;5.57;3.73;;;14.80;1.00;;;;;;5091556;28;20529;-61
2022/04/12 08:34:55;;;;;;;7.63;3.77;;;15.00;1.00;;;;;;5091340;28;20440;-63
2022/04/12 08:37:21;;;;;;;8.20;4.30;;;15.20;1.00;;;;;;5103395;28;20530;-63
2022/04/12 08:39:47;;;;;;;3.37;3.03;;;15.40;1.00;;;;;;5103514;28;20634;-63
2022/04/12 08:42:13;;;;;;;4.80;3.40;;;15.50;1.00;;;;;;5095657;28;20437;-63
2022/04/12 08:44:43;;;;;;;7.03;3.80;;;15.70;1.00;;;;;;5095490;28;21043;-63
2022/04/12 08:47:09;;;;;;;5.20;3.67;;;15.70;1.00;;;;;;5094002;28;20541;-64
2022/04/12 08:49:38;;;;;;;5.47;3.90;;;15.80;1.00;;;;;;5096650;28;20474;-62
2022/04/12 08:52:04;;;;;;;5.07;3.80;;;15.80;1.00;;;;;;5105309;28;20185;-64
2022/04/12 08:54:32;;;;;;;5.37;3.40;;;15.80;1.00;;;;;;5104539;28;20772;-64
2022/04/12 08:56:58;;;;;;;5.13;3.30;;;15.90;1.00;;;;;;5101434;28;20411;-64
2022/04/12 08:59:25;;;;;;;5.33;2.90;;;15.80;1.00;;;;;;5100331;28;20693;-61
2022/04/12 09:01:50;;;;;;;5.23;3.43;;;15.70;1.00;;;;;;5102548;28;20454;-63
2022/04/12 09:04:16;;;;;;;4.40;3.47;;;15.90;1.00;;;;;;5101624;28;20431;-65
2022/04/12 09:06:56;;;;;;;6.03;3.77;;;16.00;1.00;;;;;;5101487;28;20182;-64
2022/04/12 09:09:30;;;;;;;5.47;3.30;;;16.20;1.00;;;;;;5099918;28;20206;-61
2022/04/12 09:12:09;;;;;;;7.17;3.60;;;16.30;1.00;;;;;;5100253;28;20440;-63
2022/04/12 09:14:43;;;;;;;4.20;3.23;;;16.40;1.00;;;;;;5100222;28;20413;-64
2022/04/12 09:17:11;;;;;;;7.47;3.70;;;16.50;1.00;;;;;;5102541;28;20435;-63
2022/04/12 09:19:40;;;;;;;4.97;3.10;;;16.50;1.00;;;;;;5100244;28;20444;-62
2022/04/12 09:22:16;;;;;;;4.60;3.33;;;16.60;1.00;;;;;;5100725;28;20486;-62
2022/04/12 09:24:58;;;;;;;5.50;3.40;;;16.70;1.00;;;;;;5105270;28;20436;-62
2022/04/12 09:27:25;;;;;;;5.00;3.33;;;16.90;1.00;;;;;;5106528;28;20446;-64
2022/04/12 09:29:54;;;;;;;3.73;3.30;;;16.90;1.00;;;;;;5109060;28;20800;-61
2022/04/12 09:32:21;;;;;;;4.40;3.30;;;16.90;1.00;;;;;;5099571;28;20784;-63
2022/04/12 09:34:47;;;;;;;2.83;2.57;;;17.10;1.00;;;;;;5108885;28;20439;-63
2022/04/12 09:37:40;;;;;;;4.30;2.80;;;17.10;1.00;;;;;;5113155;28;20459;-64
2022/04/12 09:40:14;;;;;;;3.43;2.90;;;16.80;1.00;;;;;;5090132;28;20379;-62
2022/04/12 09:42:53;;;;;;;4.20;2.60;;;16.90;1.00;;;;;;5112610;28;20839;-63
2022/04/12 09:45:22;;;;;;;4.60;2.90;;;16.80;1.00;;;;;;5114332;28;20533;-63
2022/04/12 09:47:49;;;;;;;4.40;2.77;;;16.90;1.00;;;;;;5113970;28;20458;-63
2022/04/12 09:50:15;;;;;;;4.20;2.60;;;16.90;1.00;;;;;;5113974;28;20443;-65
2022/04/12 09:52:55;;;;;;;2.90;2.70;;;17.10;1.00;;;;;;5109088;28;20426;-63
2022/04/12 09:55:40;;;;;;;4.73;2.90;;;17.10;1.00;;;;;;5108103;28;20181;-64
2022/04/12 09:58:17;;;;;;;3.30;2.90;;;17.30;1.00;;;;;;5104725;28;20454;-62
2022/04/12 10:00:47;;;;;;;4.27;3.70;;;17.60;1.00;;;;;;5105693;28;20444;-62
2022/04/12 10:03:15;;;;;;;4.00;3.50;;;17.80;1.00;;;;;;5101032;28;20467;-63
2022/04/12 10:05:43;;;;;;;4.00;3.40;;;17.90;1.00;;;;;;5113584;28;20887;-62
2022/04/12 10:08:13;;;;;;;6.70;3.23;;;18.10;1.00;;;;;;5102438;28;20431;-64
2022/04/12 10:10:43;;;;;;;4.00;3.00;;;18.20;1.00;;;;;;5095798;28;20531;-63
2022/04/12 10:13:09;;;;;;;3.83;3.07;;;18.20;1.00;;;;;;5104061;28;20521;-63
2022/04/12 10:15:36;;;;;;;3.10;2.80;;;18.10;1.00;;;;;;5109978;28;20432;-63
2022/04/12 10:18:02;;;;;;;3.63;3.17;;;18.10;1.00;;;;;;5096348;28;20496;-62
2022/04/12 10:20:28;;;;;;;6.73;3.73;;;18.00;1.00;;;;;;5093329;28;20817;-65
2022/04/12 10:22:58;;;;;;;4.23;3.10;;;17.90;1.00;;;;;;5093242;28;20549;-63
2022/04/12 10:25:24;;;;;;;5.40;4.27;;;18.00;1.00;;;;;;5100291;28;20406;-63
2022/04/12 10:27:55;;;;;;;5.93;3.50;;;18.10;1.00;;;;;;5092767;28;20486;-63
2022/04/12 10:30:22;;;;;;;6.17;3.13;;;18.10;1.00;;;;;;5096013;28;20429;-63
2022/04/12 10:33:29;;;;;;;3.83;3.30;;;18.30;1.00;;;;;;5097678;28;20433;-63
2022/04/12 10:35:55;;;;;;;4.30;3.30;;;18.30;1.00;;;;;;5081010;28;20448;-63
2022/04/12 10:38:38;;;;;;;4.53;3.27;;;18.20;1.00;;;;;;5091829;28;20416;-63
2022/04/12 10:41:13;;;;;;;5.00;3.40;;;18.10;1.00;;;;;;5097614;28;20770;-63
2022/04/12 10:43:40;;;;;;;4.80;3.43;;;18.10;1.00;;;;;;5097626;28;20467;-63
2022/04/12 10:46:08;;;;;;;3.80;3.27;;;18.40;1.00;;;;;;5100726;28;20994;-63
2022/04/12 10:48:34;;;;;;;5.50;2.90;;;;;;;;;;5104866;28;20817;-65
2022/04/12 10:51:01;;;;;;;3.63;3.33;;;18.70;1.00;;;;;;5112935;28;20971;-64
2022/04/12 10:53:36;;;;;;;4.00;2.80;;;18.70;1.00;;;;;;5104353;28;20855;-63
2022/04/12 10:56:12;;;;;;;4.03;3.63;;;18.70;1.00;;;;;;5094928;28;20438;-65
2022/04/12 10:58:39;;;;;;;3.50;3.00;;;21.50;1.00;;;;;;5094555;28;20440;-62
2022/04/12 11:01:09;;;;;;;3.60;3.13;;;18.80;1.00;;;;;;5097187;28;20472;-62
2022/04/12 11:03:41;;;;;;;6.03;3.33;;;18.70;1.00;;;;;;5103227;28;20565;-63
2022/04/12 11:06:14;;;;;;;4.10;3.10;;;18.70;1.00;;;;;;5112984;28;20435;-63
2022/04/12 11:08:47;;;;;;;3.20;2.90;;;18.70;1.00;;;;;;5100203;28;20929;-64
2022/04/12 11:11:18;;;;;;;4.37;3.20;;;18.70;1.00;;;;;;5109995;28;20440;-61
2022/04/12 11:13:44;;;;;;;3.87;3.50;;;18.50;1.00;;;;;;5098630;28;20435;-62
2022/04/12 11:16:11;;;;;;;3.27;2.97;;;18.40;1.00;;;;;;5107480;28;20412;-64
2022/04/12 11:18:56;;;;;;;3.97;3.03;;;18.80;1.00;;;;;;5105608;28;20440;-64
2022/04/12 11:21:26;;;;;;;5.03;3.17;;;19.00;1.00;;;;;;5091999;28;20755;-63
2022/04/12 11:23:59;;;;;;;6.60;3.80;;;18.80;1.00;;;;;;5099537;28;21001;-63
2022/04/12 11:26:46;;;;;;;3.33;3.03;;;18.50;1.00;;;;;;5106432;28;20460;-64
2022/04/12 11:29:15;;;;;;;6.43;3.87;;;18.60;1.00;;;;;;5094675;28;20460;-63
2022/04/12 11:31:42;;;;;;;3.40;3.10;;;18.70;1.00;;;;;;5106927;28;20434;-63
2022/04/12 11:34:08;;;;;;;5.20;3.77;;;19.00;1.00;;;;;;5097011;28;20422;-64
2022/04/12 11:36:36;;;;;;;7.77;3.57;;;18.90;1.00;;;;;;5095364;28;20481;-63
2022/04/12 11:39:02;;;;;;;7.20;4.40;;;18.90;1.00;;;;;;5094060;28;20724;-64
2022/04/12 11:41:29;;;;;;;6.60;4.40;;;18.70;1.00;;;;;;5106607;28;20954;-64
2022/04/12 11:44:02;;;;;;;5.07;3.30;;;18.80;1.00;;;;;;5092061;28;20447;-65
2022/04/12 11:46:32;;;;;;;7.67;4.20;;;18.60;1.00;;;;;;5102351;28;20451;-62
2022/04/12 11:49:09;;;;;;;6.07;4.53;;;18.60;1.00;;;;;;5111722;28;20459;-64
2022/04/12 11:51:43;;;;;;;7.30;4.50;;;18.70;1.00;;;;;;5111896;28;20432;-63
2022/04/12 11:54:31;;;;;;;6.07;4.73;;;18.70;1.00;;;;;;5110867;28;20472;-64
2022/04/12 11:57:01;;;;;;;5.43;4.90;;;18.70;1.00;;;;;;5110112;28;20490;-63
2022/04/12 11:59:28;;;;;;;7.03;4.97;;;18.90;1.00;;;;;;5104115;28;20459;-64
2022/04/12 12:01:59;;;;;;;8.63;5.50;;;19.00;1.00;;;;;;5095706;28;20844;-64
2022/04/12 12:04:30;;;;;;;6.70;5.00;;;19.00;1.00;;;;;;5092206;28;20940;-65
2022/04/12 12:07:05;;;;;;;5.77;4.60;;;19.00;1.00;;;;;;5107981;28;20473;-64
2022/04/12 12:09:31;;;;;;;5.40;4.83;;;19.00;1.00;;;;;;5092212;28;20463;-63
2022/04/12 12:12:09;;;;;;;5.77;5.10;;;19.10;1.00;;;;;;5096565;28;20414;-64
2022/04/12 12:14:36;;;;;;;10.43;5.90;;;19.20;1.00;;;;;;5102467;28;20945;-63
2022/04/12 12:17:09;;;;;;;6.00;4.90;;;19.40;1.00;;;;;;5091767;28;20432;-61
2022/04/12 12:19:38;;;;;;;5.50;5.00;;;19.20;1.00;;;;;;5094952;28;20428;-63
2022/04/12 12:22:08;;;;;;;5.20;4.67;;;19.20;1.00;;;;;;5101610;28;20448;-64
2022/04/12 12:24:48;;;;;;;5.83;4.53;;;19.30;1.00;;;;;;5097594;28;20448;-63
2022/04/12 12:27:13;;;;;;;8.80;4.90;;;19.40;1.00;;;;;;5098902;28;20433;-63
2022/04/12 12:29:42;;;;;;;9.03;5.57;;;19.40;1.00;;;;;;5102236;28;20925;-62
2022/04/12 12:32:08;;;;;;;7.40;5.23;;;19.10;1.00;;;;;;5102206;28;20182;-64
2022/04/12 12:34:35;;;;;;;6.43;4.87;;;19.40;1.00;;;;;;5101096;28;20495;-63
2022/04/12 12:37:08;;;;;;;5.30;4.10;;;19.50;1.00;;;;;;5100746;28;20428;-64
2022/04/12 12:39:39;;;;;;;6.30;4.90;;;19.60;1.00;;;;;;5101883;28;20523;-63
2022/04/12 12:42:06;;;;;;;6.23;5.00;;;19.30;1.00;;;;;;5100979;28;20436;-63
2022/04/12 12:44:36;;;;;;;5.57;4.60;;;19.20;1.00;;;;;;5101243;28;20966;-62
2022/04/12 12:47:04;;;;;;;8.57;5.00;;;19.60;1.00;;;;;;5102628;28;21012;-63
2022/04/12 12:49:35;;;;;;;7.47;4.90;;;19.50;1.00;;;;;;5100828;28;20438;-64
2022/04/12 12:52:04;;;;;;;6.30;4.47;;;19.60;1.00;;;;;;5103282;28;20486;-63
2022/04/12 12:54:29;;;;;;;6.37;4.80;;;19.60;1.00;;;;;;5103736;28;20443;-64
2022/04/12 12:56:55;;;;;;;8.33;4.40;;;19.60;1.00;;;;;;5100824;28;20415;-63
2022/04/12 12:59:27;;;;;;;5.57;4.70;;;19.80;1.00;;;;;;5105237;28;20190;-62
2022/04/12 13:01:54;;;;;;;5.93;4.43;;;19.80;1.00;;;;;;5102873;28;20187;-64
2022/04/12 13:04:25;;;;;;;5.70;4.73;;;20.00;1.00;;;;;;5101098;28;20487;-63
2022/04/12 13:07:07;;;;;;;5.10;4.30;;;20.00;1.00;;;;;;5101702;28;20449;-64
2022/04/12 13:09:44;;;;;;;7.33;4.80;;;20.00;1.00;;;;;;5097182;28;20471;-63